sensor_id;sensor_type;location;lat;lon;timestamp;P1;durP1;ratioP1;P2;durP2;ratioP2
41623;SDS011;27319;50.306;18.926;2023-03-14T00:01:37;16.48;;;5.13;;
41623;SDS011;27319;50.306;18.926;2023-03-14T00:05:38;11.63;;;6.05;;
41623;SDS011;27319;50.306;18.926;2023-03-14T00:08:39;9.25;;;4.60;;
41623;SDS011;27319;50.306;18.926;2023-03-14T00:12:40;7.93;;;4.97;;
41623;SDS011;27319;50.306;18.926;2023-03-14T00:16:40;8.20;;;5.47;;
41623;SDS011;27319;50.306;18.926;2023-03-14T00:20:41;9.85;;;5.38;;
41623;SDS011;27319;50.306;18.926;2023-03-14T00:24:42;8.63;;;4.88;;
41623;SDS011;27319;50.306;18.926;2023-03-14T00:28:43;8.65;;;4.55;;
41623;SDS011;27319;50.306;18.926;2023-03-14T00:32:44;10.23;;;5.63;;
41623;SDS011;27319;50.306;18.926;2023-03-14T00:36:45;9.02;;;4.35;;
41623;SDS011;27319;50.306;18.926;2023-03-14T00:40:45;11.88;;;4.88;;
41623;SDS011;27319;50.306;18.926;2023-03-14T00:44:46;6.38;;;3.78;;
41623;SDS011;27319;50.306;18.926;2023-03-14T00:48:47;6.07;;;3.65;;
41623;SDS011;27319;50.306;18.926;2023-03-14T00:52:48;6.97;;;3.92;;
41623;SDS011;27319;50.306;18.926;2023-03-14T00:56:49;7.13;;;3.63;;
41623;SDS011;27319;50.306;18.926;2023-03-14T01:00:50;8.35;;;4.68;;
41623;SDS011;27319;50.306;18.926;2023-03-14T01:04:50;7.93;;;3.92;;
41623;SDS011;27319;50.306;18.926;2023-03-14T01:07:51;6.88;;;4.10;;
41623;SDS011;27319;50.306;18.926;2023-03-14T01:11:52;8.88;;;4.63;;
41623;SDS011;27319;50.306;18.926;2023-03-14T01:15:53;7.40;;;3.67;;
41623;SDS011;27319;50.306;18.926;2023-03-14T01:19:54;7.72;;;3.90;;
41623;SDS011;27319;50.306;18.926;2023-03-14T01:23:55;5.00;;;3.38;;
41623;SDS011;27319;50.306;18.926;2023-03-14T01:27:55;7.53;;;3.80;;
41623;SDS011;27319;50.306;18.926;2023-03-14T01:31:56;6.65;;;3.65;;
41623;SDS011;27319;50.306;18.926;2023-03-14T01:35:57;7.20;;;3.42;;
41623;SDS011;27319;50.306;18.926;2023-03-14T01:39:58;6.95;;;3.45;;
41623;SDS011;27319;50.306;18.926;2023-03-14T01:43:59;10.15;;;3.42;;
41623;SDS011;27319;50.306;18.926;2023-03-14T01:47:59;6.45;;;3.60;;
41623;SDS011;27319;50.306;18.926;2023-03-14T01:55:47;7.75;;;3.78;;
41623;SDS011;27319;50.306;18.926;2023-03-14T01:59:49;6.78;;;3.78;;
41623;SDS011;27319;50.306;18.926;2023-03-14T02:03:52;8.07;;;3.50;;
41623;SDS011;27319;50.306;18.926;2023-03-14T02:06:57;8.10;;;3.20;;
41623;SDS011;27319;50.306;18.926;2023-03-14T02:10:23;6.60;;;3.92;;
41623;SDS011;27319;50.306;18.926;2023-03-14T02:14:26;11.25;;;3.88;;
41623;SDS011;27319;50.306;18.926;2023-03-14T02:18:24;7.72;;;3.50;;
41623;SDS011;27319;50.306;18.926;2023-03-14T02:22:24;11.05;;;3.80;;
41623;SDS011;27319;50.306;18.926;2023-03-14T02:33:39;7.38;;;3.85;;
41623;SDS011;27319;50.306;18.926;2023-03-14T02:37:48;8.40;;;3.28;;
41623;SDS011;27319;50.306;18.926;2023-03-14T02:42:04;8.05;;;3.80;;
41623;SDS011;27319;50.306;18.926;2023-03-14T02:46:05;7.82;;;4.40;;
41623;SDS011;27319;50.306;18.926;2023-03-14T02:50:16;7.78;;;3.97;;
41623;SDS011;27319;50.306;18.926;2023-03-14T02:54:07;8.68;;;3.47;;
41623;SDS011;27319;50.306;18.926;2023-03-14T02:58:08;7.50;;;3.55;;
41623;SDS011;27319;50.306;18.926;2023-03-14T03:02:09;8.98;;;4.55;;
41623;SDS011;27319;50.306;18.926;2023-03-14T03:05:57;7.95;;;4.03;;
41623;SDS011;27319;50.306;18.926;2023-03-14T03:08:58;7.50;;;3.53;;
41623;SDS011;27319;50.306;18.926;2023-03-14T03:12:59;6.88;;;3.50;;
41623;SDS011;27319;50.306;18.926;2023-03-14T03:17:00;7.60;;;3.60;;
41623;SDS011;27319;50.306;18.926;2023-03-14T03:21:02;9.30;;;4.97;;
41623;SDS011;27319;50.306;18.926;2023-03-14T03:25:02;13.23;;;7.75;;
41623;SDS011;27319;50.306;18.926;2023-03-14T03:29:03;22.08;;;14.10;;
41623;SDS011;27319;50.306;18.926;2023-03-14T03:33:03;17.55;;;9.68;;
41623;SDS011;27319;50.306;18.926;2023-03-14T03:37:04;22.02;;;8.48;;
41623;SDS011;27319;50.306;18.926;2023-03-14T03:41:05;20.25;;;6.40;;
41623;SDS011;27319;50.306;18.926;2023-03-14T03:45:06;16.55;;;6.47;;
41623;SDS011;27319;50.306;18.926;2023-03-14T03:49:08;11.93;;;5.10;;
41623;SDS011;27319;50.306;18.926;2023-03-14T03:53:10;11.63;;;5.72;;
41623;SDS011;27319;50.306;18.926;2023-03-14T03:57:11;16.85;;;8.20;;
41623;SDS011;27319;50.306;18.926;2023-03-14T04:01:12;15.88;;;7.28;;
41623;SDS011;27319;50.306;18.926;2023-03-14T04:05:13;14.07;;;7.75;;
41623;SDS011;27319;50.306;18.926;2023-03-14T04:09:14;33.58;;;14.27;;
41623;SDS011;27319;50.306;18.926;2023-03-14T04:13:14;31.85;;;13.52;;
41623;SDS011;27319;50.306;18.926;2023-03-14T04:17:15;26.08;;;11.68;;
41623;SDS011;27319;50.306;18.926;2023-03-14T04:21:16;27.55;;;12.68;;
41623;SDS011;27319;50.306;18.926;2023-03-14T04:25:17;41.92;;;18.48;;
41623;SDS011;27319;50.306;18.926;2023-03-14T04:29:17;34.25;;;15.68;;
41623;SDS011;27319;50.306;18.926;2023-03-14T04:33:18;56.70;;;25.88;;
41623;SDS011;27319;50.306;18.926;2023-03-14T04:37:19;53.65;;;25.77;;
41623;SDS011;27319;50.306;18.926;2023-03-14T04:41:20;48.90;;;23.92;;
41623;SDS011;27319;50.306;18.926;2023-03-14T04:45:20;45.22;;;23.33;;
41623;SDS011;27319;50.306;18.926;2023-03-14T04:49:21;40.28;;;18.67;;
41623;SDS011;27319;50.306;18.926;2023-03-14T04:53:22;32.90;;;14.60;;
41623;SDS011;27319;50.306;18.926;2023-03-14T04:57:23;37.33;;;16.70;;
41623;SDS011;27319;50.306;18.926;2023-03-14T05:01:24;34.85;;;15.48;;
41623;SDS011;27319;50.306;18.926;2023-03-14T05:05:25;37.17;;;16.52;;
41623;SDS011;27319;50.306;18.926;2023-03-14T05:08:26;32.08;;;15.45;;
41623;SDS011;27319;50.306;18.926;2023-03-14T05:11:27;27.65;;;13.68;;
41623;SDS011;27319;50.306;18.926;2023-03-14T05:14:28;26.58;;;11.65;;
41623;SDS011;27319;50.306;18.926;2023-03-14T05:17:29;15.27;;;8.20;;
41623;SDS011;27319;50.306;18.926;2023-03-14T05:20:32;12.20;;;6.43;;
41623;SDS011;27319;50.306;18.926;2023-03-14T05:23:33;11.60;;;5.43;;
41623;SDS011;27319;50.306;18.926;2023-03-14T05:26:34;12.32;;;5.38;;
41623;SDS011;27319;50.306;18.926;2023-03-14T05:30:34;14.23;;;6.20;;
41623;SDS011;27319;50.306;18.926;2023-03-14T05:34:35;13.95;;;8.25;;
41623;SDS011;27319;50.306;18.926;2023-03-14T05:38:36;9.60;;;6.57;;
41623;SDS011;27319;50.306;18.926;2023-03-14T05:42:37;12.52;;;5.60;;
41623;SDS011;27319;50.306;18.926;2023-03-14T05:46:38;11.55;;;5.10;;
41623;SDS011;27319;50.306;18.926;2023-03-14T05:50:39;10.02;;;4.65;;
41623;SDS011;27319;50.306;18.926;2023-03-14T05:54:39;12.88;;;5.07;;
41623;SDS011;27319;50.306;18.926;2023-03-14T05:58:40;10.95;;;4.32;;
41623;SDS011;27319;50.306;18.926;2023-03-14T06:02:41;8.07;;;3.97;;
41623;SDS011;27319;50.306;18.926;2023-03-14T06:05:57;9.73;;;4.63;;
41623;SDS011;27319;50.306;18.926;2023-03-14T06:09:33;10.57;;;4.28;;
41623;SDS011;27319;50.306;18.926;2023-03-14T06:12:33;10.43;;;5.50;;
41623;SDS011;27319;50.306;18.926;2023-03-14T06:15:35;10.85;;;4.53;;
41623;SDS011;27319;50.306;18.926;2023-03-14T06:18:36;9.48;;;4.50;;
41623;SDS011;27319;50.306;18.926;2023-03-14T06:21:37;14.40;;;5.13;;
41623;SDS011;27319;50.306;18.926;2023-03-14T06:24:37;8.05;;;4.57;;
41623;SDS011;27319;50.306;18.926;2023-03-14T06:27:39;13.32;;;5.55;;
41623;SDS011;27319;50.306;18.926;2023-03-14T06:31:39;8.43;;;4.82;;
41623;SDS011;27319;50.306;18.926;2023-03-14T06:35:40;8.13;;;4.63;;
41623;SDS011;27319;50.306;18.926;2023-03-14T06:39:40;13.77;;;4.80;;
41623;SDS011;27319;50.306;18.926;2023-03-14T06:43:41;11.68;;;5.43;;
41623;SDS011;27319;50.306;18.926;2023-03-14T06:47:42;13.02;;;4.90;;
41623;SDS011;27319;50.306;18.926;2023-03-14T06:51:43;8.02;;;3.83;;
41623;SDS011;27319;50.306;18.926;2023-03-14T06:55:44;8.70;;;4.80;;
41623;SDS011;27319;50.306;18.926;2023-03-14T06:59:45;13.90;;;5.35;;
41623;SDS011;27319;50.306;18.926;2023-03-14T07:03:46;7.28;;;4.15;;
41623;SDS011;27319;50.306;18.926;2023-03-14T07:07:46;10.55;;;4.03;;
41623;SDS011;27319;50.306;18.926;2023-03-14T07:11:47;8.23;;;4.60;;
41623;SDS011;27319;50.306;18.926;2023-03-14T07:15:49;12.65;;;4.13;;
41623;SDS011;27319;50.306;18.926;2023-03-14T07:19:49;8.48;;;4.13;;
41623;SDS011;27319;50.306;18.926;2023-03-14T07:23:50;11.25;;;4.30;;
41623;SDS011;27319;50.306;18.926;2023-03-14T07:27:51;12.45;;;4.32;;
41623;SDS011;27319;50.306;18.926;2023-03-14T07:31:52;18.48;;;5.45;;
41623;SDS011;27319;50.306;18.926;2023-03-14T07:35:53;10.45;;;4.40;;
41623;SDS011;27319;50.306;18.926;2023-03-14T07:39:54;9.05;;;4.85;;
41623;SDS011;27319;50.306;18.926;2023-03-14T07:43:54;9.43;;;4.65;;
41623;SDS011;27319;50.306;18.926;2023-03-14T07:47:55;14.40;;;4.30;;
41623;SDS011;27319;50.306;18.926;2023-03-14T07:51:56;16.30;;;4.80;;
41623;SDS011;27319;50.306;18.926;2023-03-14T07:55:57;22.77;;;5.80;;
41623;SDS011;27319;50.306;18.926;2023-03-14T07:59:58;10.77;;;4.43;;
41623;SDS011;27319;50.306;18.926;2023-03-14T08:03:59;10.30;;;4.40;;
41623;SDS011;27319;50.306;18.926;2023-03-14T08:07:59;13.80;;;5.72;;
41623;SDS011;27319;50.306;18.926;2023-03-14T08:12:00;10.70;;;5.00;;
41623;SDS011;27319;50.306;18.926;2023-03-14T08:16:01;14.82;;;5.57;;
41623;SDS011;27319;50.306;18.926;2023-03-14T08:20:02;13.18;;;5.95;;
41623;SDS011;27319;50.306;18.926;2023-03-14T08:24:03;12.02;;;6.70;;
41623;SDS011;27319;50.306;18.926;2023-03-14T08:28:04;11.02;;;6.72;;
41623;SDS011;27319;50.306;18.926;2023-03-14T08:32:04;14.07;;;6.75;;
41623;SDS011;27319;50.306;18.926;2023-03-14T08:36:05;13.02;;;5.60;;
41623;SDS011;27319;50.306;18.926;2023-03-14T08:40:06;13.57;;;6.03;;
41623;SDS011;27319;50.306;18.926;2023-03-14T08:44:08;15.38;;;7.25;;
41623;SDS011;27319;50.306;18.926;2023-03-14T08:48:08;9.15;;;5.05;;
41623;SDS011;27319;50.306;18.926;2023-03-14T08:52:09;25.00;;;6.45;;
41623;SDS011;27319;50.306;18.926;2023-03-14T08:56:10;8.65;;;4.65;;
41623;SDS011;27319;50.306;18.926;2023-03-14T09:00:11;12.27;;;5.60;;
41623;SDS011;27319;50.306;18.926;2023-03-14T09:04:11;15.02;;;7.07;;
41623;SDS011;27319;50.306;18.926;2023-03-14T09:07:12;11.85;;;5.63;;
41623;SDS011;27319;50.306;18.926;2023-03-14T09:10:13;11.95;;;4.82;;
41623;SDS011;27319;50.306;18.926;2023-03-14T09:13:14;15.48;;;4.80;;
41623;SDS011;27319;50.306;18.926;2023-03-14T09:17:15;19.38;;;5.70;;
41623;SDS011;27319;50.306;18.926;2023-03-14T09:21:16;10.68;;;5.00;;
41623;SDS011;27319;50.306;18.926;2023-03-14T09:25:17;10.00;;;4.53;;
41623;SDS011;27319;50.306;18.926;2023-03-14T09:29:17;13.15;;;4.53;;
41623;SDS011;27319;50.306;18.926;2023-03-14T09:33:18;12.07;;;4.75;;
41623;SDS011;27319;50.306;18.926;2023-03-14T09:37:19;9.63;;;3.95;;
41623;SDS011;27319;50.306;18.926;2023-03-14T09:45:04;7.53;;;4.18;;
41623;SDS011;27319;50.306;18.926;2023-03-14T09:49:09;14.20;;;4.70;;
41623;SDS011;27319;50.306;18.926;2023-03-14T09:53:19;13.05;;;4.55;;
41623;SDS011;27319;50.306;18.926;2023-03-14T09:57:16;11.98;;;5.47;;
41623;SDS011;27319;50.306;18.926;2023-03-14T10:01:16;13.00;;;4.95;;
41623;SDS011;27319;50.306;18.926;2023-03-14T10:05:18;11.07;;;4.93;;
41623;SDS011;27319;50.306;18.926;2023-03-14T10:09:21;11.60;;;4.53;;
41623;SDS011;27319;50.306;18.926;2023-03-14T10:13:25;8.80;;;4.35;;
41623;SDS011;27319;50.306;18.926;2023-03-14T10:17:28;10.18;;;5.22;;
41623;SDS011;27319;50.306;18.926;2023-03-14T10:21:29;9.45;;;4.70;;
41623;SDS011;27319;50.306;18.926;2023-03-14T10:25:36;10.55;;;5.18;;
41623;SDS011;27319;50.306;18.926;2023-03-14T10:29:52;20.95;;;6.88;;
41623;SDS011;27319;50.306;18.926;2023-03-14T10:34:02;16.88;;;7.38;;
41623;SDS011;27319;50.306;18.926;2023-03-14T10:38:02;12.38;;;6.05;;
41623;SDS011;27319;50.306;18.926;2023-03-14T10:42:03;16.42;;;7.28;;
41623;SDS011;27319;50.306;18.926;2023-03-14T10:46:08;18.92;;;8.32;;
41623;SDS011;27319;50.306;18.926;2023-03-14T10:50:24;23.63;;;11.02;;
41623;SDS011;27319;50.306;18.926;2023-03-14T10:54:13;14.35;;;7.55;;
41623;SDS011;27319;50.306;18.926;2023-03-14T10:58:33;18.25;;;8.63;;
41623;SDS011;27319;50.306;18.926;2023-03-14T11:09:20;17.50;;;8.20;;
41623;SDS011;27319;50.306;18.926;2023-03-14T11:13:30;23.85;;;9.75;;
41623;SDS011;27319;50.306;18.926;2023-03-14T11:36:21;9.18;;;5.18;;
41623;SDS011;27319;50.306;18.926;2023-03-14T11:40:22;13.20;;;6.18;;
41623;SDS011;27319;50.306;18.926;2023-03-14T11:44:23;11.55;;;6.75;;
41623;SDS011;27319;50.306;18.926;2023-03-14T11:52:17;10.95;;;5.85;;
41623;SDS011;27319;50.306;18.926;2023-03-14T11:56:25;12.32;;;6.45;;
41623;SDS011;27319;50.306;18.926;2023-03-14T12:00:21;9.80;;;6.15;;
41623;SDS011;27319;50.306;18.926;2023-03-14T12:04:24;14.65;;;7.78;;
41623;SDS011;27319;50.306;18.926;2023-03-14T12:11:47;16.58;;;8.48;;
41623;SDS011;27319;50.306;18.926;2023-03-14T12:15:56;30.63;;;14.80;;
41623;SDS011;27319;50.306;18.926;2023-03-14T12:19:48;24.55;;;9.02;;
41623;SDS011;27319;50.306;18.926;2023-03-14T12:23:57;12.27;;;6.85;;
41623;SDS011;27319;50.306;18.926;2023-03-14T12:28:31;13.18;;;7.00;;
41623;SDS011;27319;50.306;18.926;2023-03-14T12:32:21;19.95;;;9.13;;
41623;SDS011;27319;50.306;18.926;2023-03-14T12:36:31;21.60;;;8.98;;
41623;SDS011;27319;50.306;18.926;2023-03-14T12:43:57;19.25;;;9.85;;
41623;SDS011;27319;50.306;18.926;2023-03-14T12:51:42;17.73;;;9.95;;
41623;SDS011;27319;50.306;18.926;2023-03-14T12:54:55;21.67;;;11.02;;
41623;SDS011;27319;50.306;18.926;2023-03-14T12:59:01;17.83;;;7.82;;
41623;SDS011;27319;50.306;18.926;2023-03-14T13:02:59;23.23;;;11.15;;
41623;SDS011;27319;50.306;18.926;2023-03-14T13:09:52;16.80;;;9.73;;
41623;SDS011;27319;50.306;18.926;2023-03-14T13:13:58;31.88;;;11.07;;
41623;SDS011;27319;50.306;18.926;2023-03-14T13:18:03;35.25;;;13.93;;
41623;SDS011;27319;50.306;18.926;2023-03-14T13:22:22;17.73;;;8.93;;
41623;SDS011;27319;50.306;18.926;2023-03-14T13:26:21;18.23;;;11.02;;
41623;SDS011;27319;50.306;18.926;2023-03-14T13:34:06;10.27;;;5.68;;
41623;SDS011;27319;50.306;18.926;2023-03-14T13:38:18;10.35;;;6.90;;
41623;SDS011;27319;50.306;18.926;2023-03-14T13:42:13;13.65;;;6.20;;
41623;SDS011;27319;50.306;18.926;2023-03-14T13:46:15;11.52;;;6.38;;
41623;SDS011;27319;50.306;18.926;2023-03-14T13:49:24;16.87;;;9.23;;
41623;SDS011;27319;50.306;18.926;2023-03-14T13:52:30;17.23;;;8.75;;
41623;SDS011;27319;50.306;18.926;2023-03-14T13:55:32;12.63;;;7.65;;
41623;SDS011;27319;50.306;18.926;2023-03-14T13:59:34;16.58;;;8.10;;
41623;SDS011;27319;50.306;18.926;2023-03-14T14:03:44;17.70;;;9.85;;
41623;SDS011;27319;50.306;18.926;2023-03-14T14:06:49;18.90;;;11.15;;
41623;SDS011;27319;50.306;18.926;2023-03-14T14:09:54;19.88;;;11.88;;
41623;SDS011;27319;50.306;18.926;2023-03-14T14:12:57;27.55;;;15.15;;
41623;SDS011;27319;50.306;18.926;2023-03-14T14:16:02;27.38;;;15.75;;
41623;SDS011;27319;50.306;18.926;2023-03-14T14:20:04;14.98;;;9.23;;
41623;SDS011;27319;50.306;18.926;2023-03-14T14:23:44;12.55;;;7.55;;
41623;SDS011;27319;50.306;18.926;2023-03-14T14:27:49;13.48;;;7.40;;
41623;SDS011;27319;50.306;18.926;2023-03-14T14:31:47;16.63;;;9.30;;
41623;SDS011;27319;50.306;18.926;2023-03-14T14:35:32;32.55;;;22.63;;
41623;SDS011;27319;50.306;18.926;2023-03-14T14:39:31;14.27;;;9.30;;
41623;SDS011;27319;50.306;18.926;2023-03-14T14:43:33;19.40;;;10.73;;
41623;SDS011;27319;50.306;18.926;2023-03-14T14:47:33;19.27;;;12.30;;
41623;SDS011;27319;50.306;18.926;2023-03-14T14:51:38;21.50;;;12.77;;
41623;SDS011;27319;50.306;18.926;2023-03-14T14:55:38;17.35;;;9.90;;
41623;SDS011;27319;50.306;18.926;2023-03-14T14:59:41;21.35;;;12.32;;
41623;SDS011;27319;50.306;18.926;2023-03-14T15:03:36;22.92;;;13.13;;
41623;SDS011;27319;50.306;18.926;2023-03-14T15:06:37;22.45;;;13.82;;
41623;SDS011;27319;50.306;18.926;2023-03-14T15:09:41;22.88;;;13.65;;
41623;SDS011;27319;50.306;18.926;2023-03-14T15:12:42;13.95;;;8.25;;
41623;SDS011;27319;50.306;18.926;2023-03-14T15:15:44;12.82;;;7.15;;
41623;SDS011;27319;50.306;18.926;2023-03-14T15:18:47;21.38;;;11.00;;
41623;SDS011;27319;50.306;18.926;2023-03-14T15:22:53;11.57;;;7.32;;
41623;SDS011;27319;50.306;18.926;2023-03-14T15:26:53;8.90;;;6.10;;
41623;SDS011;27319;50.306;18.926;2023-03-14T15:30:55;11.95;;;6.68;;
41623;SDS011;27319;50.306;18.926;2023-03-14T15:34:55;12.77;;;7.32;;
41623;SDS011;27319;50.306;18.926;2023-03-14T15:38:56;12.57;;;8.23;;
41623;SDS011;27319;50.306;18.926;2023-03-14T15:42:57;15.98;;;9.95;;
41623;SDS011;27319;50.306;18.926;2023-03-14T15:46:57;17.10;;;9.77;;
41623;SDS011;27319;50.306;18.926;2023-03-14T15:50:58;15.18;;;9.23;;
41623;SDS011;27319;50.306;18.926;2023-03-14T15:54:59;20.48;;;7.65;;
41623;SDS011;27319;50.306;18.926;2023-03-14T15:59:00;11.32;;;6.82;;
41623;SDS011;27319;50.306;18.926;2023-03-14T16:03:01;10.85;;;6.68;;
41623;SDS011;27319;50.306;18.926;2023-03-14T16:06:02;10.63;;;5.95;;
41623;SDS011;27319;50.306;18.926;2023-03-14T16:09:04;8.30;;;5.20;;
41623;SDS011;27319;50.306;18.926;2023-03-14T16:12:05;13.48;;;5.93;;
41623;SDS011;27319;50.306;18.926;2023-03-14T16:16:06;17.58;;;8.95;;
41623;SDS011;27319;50.306;18.926;2023-03-14T16:19:08;16.60;;;10.10;;
41623;SDS011;27319;50.306;18.926;2023-03-14T16:22:09;14.40;;;9.32;;
41623;SDS011;27319;50.306;18.926;2023-03-14T16:25:10;15.93;;;10.50;;
41623;SDS011;27319;50.306;18.926;2023-03-14T16:28:12;18.55;;;10.32;;
41623;SDS011;27319;50.306;18.926;2023-03-14T16:31:14;13.07;;;8.70;;
41623;SDS011;27319;50.306;18.926;2023-03-14T16:35:13;17.15;;;9.73;;
41623;SDS011;27319;50.306;18.926;2023-03-14T16:39:14;19.23;;;11.50;;
41623;SDS011;27319;50.306;18.926;2023-03-14T16:43:15;21.02;;;11.20;;
41623;SDS011;27319;50.306;18.926;2023-03-14T16:46:16;22.70;;;12.75;;
41623;SDS011;27319;50.306;18.926;2023-03-14T16:49:18;23.63;;;12.73;;
41623;SDS011;27319;50.306;18.926;2023-03-14T16:52:19;23.58;;;12.88;;
41623;SDS011;27319;50.306;18.926;2023-03-14T16:56:20;18.42;;;11.13;;
41623;SDS011;27319;50.306;18.926;2023-03-14T16:59:21;20.55;;;11.52;;
41623;SDS011;27319;50.306;18.926;2023-03-14T17:02:22;15.80;;;9.85;;
41623;SDS011;27319;50.306;18.926;2023-03-14T17:06:24;17.73;;;10.05;;
41623;SDS011;27319;50.306;18.926;2023-03-14T17:09:26;19.55;;;10.73;;
41623;SDS011;27319;50.306;18.926;2023-03-14T17:12:28;18.30;;;12.95;;
41623;SDS011;27319;50.306;18.926;2023-03-14T17:15:29;20.27;;;13.20;;
41623;SDS011;27319;50.306;18.926;2023-03-14T17:19:30;29.98;;;16.80;;
41623;SDS011;27319;50.306;18.926;2023-03-14T17:22:45;22.40;;;14.82;;
41623;SDS011;27319;50.306;18.926;2023-03-14T17:26:46;21.20;;;12.70;;
41623;SDS011;27319;50.306;18.926;2023-03-14T17:29:47;16.88;;;11.00;;
41623;SDS011;27319;50.306;18.926;2023-03-14T17:32:48;18.67;;;11.43;;
41623;SDS011;27319;50.306;18.926;2023-03-14T17:35:49;21.92;;;11.75;;
41623;SDS011;27319;50.306;18.926;2023-03-14T17:38:50;18.10;;;11.85;;
41623;SDS011;27319;50.306;18.926;2023-03-14T17:42:51;19.52;;;11.30;;
41623;SDS011;27319;50.306;18.926;2023-03-14T17:46:04;21.23;;;11.32;;
41623;SDS011;27319;50.306;18.926;2023-03-14T17:50:05;18.02;;;11.30;;
41623;SDS011;27319;50.306;18.926;2023-03-14T17:54:06;20.88;;;11.50;;
41623;SDS011;27319;50.306;18.926;2023-03-14T17:58:07;16.25;;;10.07;;
41623;SDS011;27319;50.306;18.926;2023-03-14T18:02:08;15.52;;;9.07;;
41623;SDS011;27319;50.306;18.926;2023-03-14T18:06:10;14.90;;;8.98;;
41623;SDS011;27319;50.306;18.926;2023-03-14T18:09:12;15.27;;;8.73;;
41623;SDS011;27319;50.306;18.926;2023-03-14T18:12:13;13.88;;;8.68;;
41623;SDS011;27319;50.306;18.926;2023-03-14T18:16:14;13.23;;;8.43;;
41623;SDS011;27319;50.306;18.926;2023-03-14T18:19:53;13.35;;;8.75;;
41623;SDS011;27319;50.306;18.926;2023-03-14T18:22:55;16.77;;;10.90;;
41623;SDS011;27319;50.306;18.926;2023-03-14T18:26:56;17.95;;;10.68;;
41623;SDS011;27319;50.306;18.926;2023-03-14T18:31:07;17.80;;;11.05;;
41623;SDS011;27319;50.306;18.926;2023-03-14T18:34:34;18.27;;;11.00;;
41623;SDS011;27319;50.306;18.926;2023-03-14T18:37:59;20.02;;;12.27;;
41623;SDS011;27319;50.306;18.926;2023-03-14T18:42:00;20.83;;;11.68;;
41623;SDS011;27319;50.306;18.926;2023-03-14T18:46:01;22.60;;;12.68;;
41623;SDS011;27319;50.306;18.926;2023-03-14T18:50:03;25.85;;;14.60;;
41623;SDS011;27319;50.306;18.926;2023-03-14T18:54:03;28.13;;;14.23;;
41623;SDS011;27319;50.306;18.926;2023-03-14T18:57:04;24.70;;;13.80;;
41623;SDS011;27319;50.306;18.926;2023-03-14T19:00:05;20.10;;;11.73;;
41623;SDS011;27319;50.306;18.926;2023-03-14T19:03:54;23.60;;;13.50;;
41623;SDS011;27319;50.306;18.926;2023-03-14T19:07:55;25.75;;;14.35;;
41623;SDS011;27319;50.306;18.926;2023-03-14T19:11:44;24.88;;;11.77;;
41623;SDS011;27319;50.306;18.926;2023-03-14T19:15:45;14.50;;;9.25;;
41623;SDS011;27319;50.306;18.926;2023-03-14T19:19:30;14.52;;;8.65;;
41623;SDS011;27319;50.306;18.926;2023-03-14T19:22:30;16.33;;;8.32;;
41623;SDS011;27319;50.306;18.926;2023-03-14T19:25:32;19.75;;;9.70;;
41623;SDS011;27319;50.306;18.926;2023-03-14T19:29:32;15.90;;;8.85;;
41623;SDS011;27319;50.306;18.926;2023-03-14T19:32:38;13.52;;;7.68;;
41623;SDS011;27319;50.306;18.926;2023-03-14T19:36:39;12.35;;;7.50;;
41623;SDS011;27319;50.306;18.926;2023-03-14T19:39:40;17.30;;;9.02;;
41623;SDS011;27319;50.306;18.926;2023-03-14T19:43:41;14.95;;;7.22;;
41623;SDS011;27319;50.306;18.926;2023-03-14T19:47:41;10.57;;;5.88;;
41623;SDS011;27319;50.306;18.926;2023-03-14T19:51:42;12.93;;;6.88;;
41623;SDS011;27319;50.306;18.926;2023-03-14T19:55:43;12.25;;;5.75;;
41623;SDS011;27319;50.306;18.926;2023-03-14T19:58:45;10.45;;;5.93;;
41623;SDS011;27319;50.306;18.926;2023-03-14T20:01:46;9.30;;;5.72;;
41623;SDS011;27319;50.306;18.926;2023-03-14T20:05:48;11.43;;;6.40;;
41623;SDS011;27319;50.306;18.926;2023-03-14T20:08:49;12.50;;;6.38;;
41623;SDS011;27319;50.306;18.926;2023-03-14T20:11:50;12.15;;;7.22;;
41623;SDS011;27319;50.306;18.926;2023-03-14T20:14:51;14.05;;;8.63;;
41623;SDS011;27319;50.306;18.926;2023-03-14T20:18:52;16.42;;;8.50;;
41623;SDS011;27319;50.306;18.926;2023-03-14T20:21:53;18.63;;;8.55;;
41623;SDS011;27319;50.306;18.926;2023-03-14T20:25:55;17.48;;;9.07;;
41623;SDS011;27319;50.306;18.926;2023-03-14T20:29:35;12.25;;;7.10;;
41623;SDS011;27319;50.306;18.926;2023-03-14T20:32:36;28.98;;;12.70;;
41623;SDS011;27319;50.306;18.926;2023-03-14T20:36:37;32.22;;;12.68;;
41623;SDS011;27319;50.306;18.926;2023-03-14T20:40:38;20.02;;;8.98;;
41623;SDS011;27319;50.306;18.926;2023-03-14T20:44:39;14.85;;;7.18;;
41623;SDS011;27319;50.306;18.926;2023-03-14T20:47:40;27.73;;;12.05;;
41623;SDS011;27319;50.306;18.926;2023-03-14T20:51:41;14.43;;;6.93;;
41623;SDS011;27319;50.306;18.926;2023-03-14T20:54:41;32.30;;;12.95;;
41623;SDS011;27319;50.306;18.926;2023-03-14T20:57:42;17.65;;;7.82;;
41623;SDS011;27319;50.306;18.926;2023-03-14T21:01:43;26.58;;;11.80;;
41623;SDS011;27319;50.306;18.926;2023-03-14T21:05:45;13.35;;;6.72;;
41623;SDS011;27319;50.306;18.926;2023-03-14T21:08:46;19.08;;;8.07;;
41623;SDS011;27319;50.306;18.926;2023-03-14T21:11:48;7.72;;;4.88;;
41623;SDS011;27319;50.306;18.926;2023-03-14T21:15:48;11.13;;;5.97;;
41623;SDS011;27319;50.306;18.926;2023-03-14T21:18:49;19.52;;;9.10;;
41623;SDS011;27319;50.306;18.926;2023-03-14T21:21:51;10.82;;;6.32;;
41623;SDS011;27319;50.306;18.926;2023-03-14T21:24:52;15.90;;;9.25;;
41623;SDS011;27319;50.306;18.926;2023-03-14T21:28:52;24.48;;;10.77;;
41623;SDS011;27319;50.306;18.926;2023-03-14T21:32:53;23.02;;;9.57;;
41623;SDS011;27319;50.306;18.926;2023-03-14T21:35:54;15.82;;;7.10;;
41623;SDS011;27319;50.306;18.926;2023-03-14T21:38:55;17.98;;;7.30;;
41623;SDS011;27319;50.306;18.926;2023-03-14T21:41:56;17.08;;;8.38;;
41623;SDS011;27319;50.306;18.926;2023-03-14T21:44:57;12.55;;;6.10;;
41623;SDS011;27319;50.306;18.926;2023-03-14T21:48:58;13.70;;;6.88;;
41623;SDS011;27319;50.306;18.926;2023-03-14T21:52:59;11.38;;;5.35;;
41623;SDS011;27319;50.306;18.926;2023-03-14T21:57:03;12.38;;;6.43;;
41623;SDS011;27319;50.306;18.926;2023-03-14T22:01:01;10.40;;;5.38;;
41623;SDS011;27319;50.306;18.926;2023-03-14T22:04:05;11.23;;;6.30;;
41623;SDS011;27319;50.306;18.926;2023-03-14T22:08:06;8.80;;;5.93;;
41623;SDS011;27319;50.306;18.926;2023-03-14T22:11:07;15.10;;;7.72;;
41623;SDS011;27319;50.306;18.926;2023-03-14T22:14:08;10.30;;;6.22;;
41623;SDS011;27319;50.306;18.926;2023-03-14T22:18:09;10.60;;;6.20;;
41623;SDS011;27319;50.306;18.926;2023-03-14T22:22:09;17.30;;;8.80;;
41623;SDS011;27319;50.306;18.926;2023-03-14T22:26:10;12.80;;;6.28;;
41623;SDS011;27319;50.306;18.926;2023-03-14T22:30:11;10.55;;;6.03;;
41623;SDS011;27319;50.306;18.926;2023-03-14T22:33:12;5.00;;;2.88;;
41623;SDS011;27319;50.306;18.926;2023-03-14T22:36:14;5.60;;;3.60;;
41623;SDS011;27319;50.306;18.926;2023-03-14T22:39:54;6.28;;;4.00;;
41623;SDS011;27319;50.306;18.926;2023-03-14T22:43:32;9.07;;;4.68;;
41623;SDS011;27319;50.306;18.926;2023-03-14T22:47:33;7.07;;;4.45;;
41623;SDS011;27319;50.306;18.926;2023-03-14T22:50:33;8.95;;;4.88;;
41623;SDS011;27319;50.306;18.926;2023-03-14T22:54:34;20.85;;;8.23;;
41623;SDS011;27319;50.306;18.926;2023-03-14T22:57:35;13.02;;;7.68;;